sensor_id;sensor_type;location;lat;lon;timestamp;P1;durP1;ratioP1;P2;durP2;ratioP2
61958;SDS011;47917;48.784;14.980;2022-07-22T00:02:16;8.55;;;6.72;;
61958;SDS011;47917;48.784;14.980;2022-07-22T00:04:42;8.60;;;6.35;;
61958;SDS011;47917;48.784;14.980;2022-07-22T00:07:07;9.32;;;6.82;;
61958;SDS011;47917;48.784;14.980;2022-07-22T00:09:33;10.95;;;7.72;;
61958;SDS011;47917;48.784;14.980;2022-07-22T00:11:58;9.23;;;7.07;;
61958;SDS011;47917;48.784;14.980;2022-07-22T00:14:24;9.95;;;6.88;;
61958;SDS011;47917;48.784;14.980;2022-07-22T00:16:52;10.40;;;7.93;;
61958;SDS011;47917;48.784;14.980;2022-07-22T00:19:18;8.93;;;6.82;;
61958;SDS011;47917;48.784;14.980;2022-07-22T00:21:43;10.38;;;7.80;;
61958;SDS011;47917;48.784;14.980;2022-07-22T00:24:12;10.27;;;7.82;;
61958;SDS011;47917;48.784;14.980;2022-07-22T00:26:38;11.27;;;8.48;;
61958;SDS011;47917;48.784;14.980;2022-07-22T00:29:03;16.10;;;9.25;;
61958;SDS011;47917;48.784;14.980;2022-07-22T00:31:31;13.85;;;10.43;;
61958;SDS011;47917;48.784;14.980;2022-07-22T00:34:00;13.02;;;8.80;;
61958;SDS011;47917;48.784;14.980;2022-07-22T00:36:29;10.35;;;7.78;;
61958;SDS011;47917;48.784;14.980;2022-07-22T00:38:58;15.18;;;9.48;;
61958;SDS011;47917;48.784;14.980;2022-07-22T00:41:24;11.50;;;7.57;;
61958;SDS011;47917;48.784;14.980;2022-07-22T00:43:54;11.13;;;7.80;;
61958;SDS011;47917;48.784;14.980;2022-07-22T00:46:20;11.43;;;7.70;;
61958;SDS011;47917;48.784;14.980;2022-07-22T00:48:45;14.30;;;7.40;;
61958;SDS011;47917;48.784;14.980;2022-07-22T00:51:14;8.63;;;7.18;;
61958;SDS011;47917;48.784;14.980;2022-07-22T00:53:39;10.38;;;6.97;;
61958;SDS011;47917;48.784;14.980;2022-07-22T00:56:09;10.63;;;7.70;;
61958;SDS011;47917;48.784;14.980;2022-07-22T00:58:34;9.88;;;7.30;;
61958;SDS011;47917;48.784;14.980;2022-07-22T01:00:59;9.55;;;7.10;;
61958;SDS011;47917;48.784;14.980;2022-07-22T01:03:25;7.75;;;6.55;;
61958;SDS011;47917;48.784;14.980;2022-07-22T01:05:50;10.45;;;7.93;;
61958;SDS011;47917;48.784;14.980;2022-07-22T01:08:16;13.05;;;8.70;;
61958;SDS011;47917;48.784;14.980;2022-07-22T01:10:41;13.90;;;8.65;;
61958;SDS011;47917;48.784;14.980;2022-07-22T01:13:07;10.00;;;7.88;;
61958;SDS011;47917;48.784;14.980;2022-07-22T01:15:32;9.60;;;6.93;;
61958;SDS011;47917;48.784;14.980;2022-07-22T01:17:59;11.63;;;7.20;;
61958;SDS011;47917;48.784;14.980;2022-07-22T01:20:24;9.45;;;7.75;;
61958;SDS011;47917;48.784;14.980;2022-07-22T01:22:51;9.77;;;8.18;;
61958;SDS011;47917;48.784;14.980;2022-07-22T01:25:16;13.02;;;7.75;;
61958;SDS011;47917;48.784;14.980;2022-07-22T01:27:41;8.98;;;7.68;;
61958;SDS011;47917;48.784;14.980;2022-07-22T01:30:07;12.45;;;8.80;;
61958;SDS011;47917;48.784;14.980;2022-07-22T01:32:33;12.50;;;7.57;;
61958;SDS011;47917;48.784;14.980;2022-07-22T01:34:58;7.78;;;6.40;;
61958;SDS011;47917;48.784;14.980;2022-07-22T01:37:23;11.55;;;7.70;;
61958;SDS011;47917;48.784;14.980;2022-07-22T01:39:49;9.68;;;7.85;;
61958;SDS011;47917;48.784;14.980;2022-07-22T01:42:17;13.00;;;8.35;;
61958;SDS011;47917;48.784;14.980;2022-07-22T01:44:43;15.68;;;9.30;;
61958;SDS011;47917;48.784;14.980;2022-07-22T01:47:08;10.52;;;7.80;;
61958;SDS011;47917;48.784;14.980;2022-07-22T01:49:34;8.27;;;6.25;;
61958;SDS011;47917;48.784;14.980;2022-07-22T01:52:00;9.02;;;7.13;;
61958;SDS011;47917;48.784;14.980;2022-07-22T01:56:52;9.85;;;6.65;;
61958;SDS011;47917;48.784;14.980;2022-07-22T01:59:18;9.35;;;7.40;;
61958;SDS011;47917;48.784;14.980;2022-07-22T02:01:43;10.88;;;8.13;;
61958;SDS011;47917;48.784;14.980;2022-07-22T02:04:09;10.40;;;8.15;;
61958;SDS011;47917;48.784;14.980;2022-07-22T02:06:34;12.90;;;8.73;;
61958;SDS011;47917;48.784;14.980;2022-07-22T02:09:00;13.88;;;8.90;;
61958;SDS011;47917;48.784;14.980;2022-07-22T02:11:26;12.45;;;8.90;;
61958;SDS011;47917;48.784;14.980;2022-07-22T02:13:51;10.90;;;8.48;;
61958;SDS011;47917;48.784;14.980;2022-07-22T02:16:17;11.98;;;9.05;;
61958;SDS011;47917;48.784;14.980;2022-07-22T02:18:42;11.27;;;9.30;;
61958;SDS011;47917;48.784;14.980;2022-07-22T02:21:08;15.73;;;10.75;;
61958;SDS011;47917;48.784;14.980;2022-07-22T02:23:34;15.50;;;11.52;;
61958;SDS011;47917;48.784;14.980;2022-07-22T02:25:59;14.77;;;10.82;;
61958;SDS011;47917;48.784;14.980;2022-07-22T02:28:25;17.80;;;9.75;;
61958;SDS011;47917;48.784;14.980;2022-07-22T02:30:51;13.10;;;9.75;;
61958;SDS011;47917;48.784;14.980;2022-07-22T02:33:16;9.07;;;7.45;;
61958;SDS011;47917;48.784;14.980;2022-07-22T02:35:42;11.63;;;8.00;;
61958;SDS011;47917;48.784;14.980;2022-07-22T02:38:07;9.35;;;7.53;;
61958;SDS011;47917;48.784;14.980;2022-07-22T02:40:32;12.98;;;9.10;;
61958;SDS011;47917;48.784;14.980;2022-07-22T02:42:58;11.45;;;9.45;;
61958;SDS011;47917;48.784;14.980;2022-07-22T02:45:23;12.70;;;10.63;;
61958;SDS011;47917;48.784;14.980;2022-07-22T02:47:50;10.52;;;8.75;;
61958;SDS011;47917;48.784;14.980;2022-07-22T02:50:16;16.20;;;9.85;;
61958;SDS011;47917;48.784;14.980;2022-07-22T02:52:41;11.60;;;8.30;;
61958;SDS011;47917;48.784;14.980;2022-07-22T02:55:07;9.70;;;7.50;;
61958;SDS011;47917;48.784;14.980;2022-07-22T02:57:33;10.50;;;6.90;;
61958;SDS011;47917;48.784;14.980;2022-07-22T02:59:58;9.60;;;8.10;;
61958;SDS011;47917;48.784;14.980;2022-07-22T03:02:23;9.90;;;7.70;;
61958;SDS011;47917;48.784;14.980;2022-07-22T03:04:49;8.95;;;7.45;;
61958;SDS011;47917;48.784;14.980;2022-07-22T03:07:14;11.55;;;8.85;;
61958;SDS011;47917;48.784;14.980;2022-07-22T03:09:39;17.55;;;11.25;;
61958;SDS011;47917;48.784;14.980;2022-07-22T03:12:05;15.02;;;11.85;;
61958;SDS011;47917;48.784;14.980;2022-07-22T03:14:33;16.55;;;12.75;;
61958;SDS011;47917;48.784;14.980;2022-07-22T03:16:59;19.27;;;14.68;;
61958;SDS011;47917;48.784;14.980;2022-07-22T03:19:24;20.25;;;12.23;;
61958;SDS011;47917;48.784;14.980;2022-07-22T03:21:50;16.45;;;11.82;;
61958;SDS011;47917;48.784;14.980;2022-07-22T03:24:15;15.77;;;13.07;;
61958;SDS011;47917;48.784;14.980;2022-07-22T03:26:41;19.42;;;14.15;;
61958;SDS011;47917;48.784;14.980;2022-07-22T03:29:07;19.10;;;15.45;;
61958;SDS011;47917;48.784;14.980;2022-07-22T03:31:32;20.30;;;12.43;;
61958;SDS011;47917;48.784;14.980;2022-07-22T03:33:58;15.13;;;11.70;;
61958;SDS011;47917;48.784;14.980;2022-07-22T03:36:26;11.00;;;9.02;;
61958;SDS011;47917;48.784;14.980;2022-07-22T03:38:51;12.70;;;8.60;;
61958;SDS011;47917;48.784;14.980;2022-07-22T03:41:22;18.08;;;11.07;;
61958;SDS011;47917;48.784;14.980;2022-07-22T03:43:50;13.55;;;10.38;;
61958;SDS011;47917;48.784;14.980;2022-07-22T03:46:16;14.65;;;9.95;;
61958;SDS011;47917;48.784;14.980;2022-07-22T03:48:47;15.85;;;11.93;;
61958;SDS011;47917;48.784;14.980;2022-07-22T03:51:13;12.55;;;9.35;;
61958;SDS011;47917;48.784;14.980;2022-07-22T03:53:39;10.55;;;7.68;;
61958;SDS011;47917;48.784;14.980;2022-07-22T03:56:04;8.93;;;6.40;;
61958;SDS011;47917;48.784;14.980;2022-07-22T03:58:30;9.10;;;6.80;;
61958;SDS011;47917;48.784;14.980;2022-07-22T04:00:56;9.10;;;6.20;;
61958;SDS011;47917;48.784;14.980;2022-07-22T04:03:21;7.70;;;6.55;;
61958;SDS011;47917;48.784;14.980;2022-07-22T04:05:47;11.25;;;6.57;;
61958;SDS011;47917;48.784;14.980;2022-07-22T04:08:12;12.00;;;7.53;;
61958;SDS011;47917;48.784;14.980;2022-07-22T04:10:38;9.40;;;6.72;;
61958;SDS011;47917;48.784;14.980;2022-07-22T04:13:04;8.90;;;5.85;;
61958;SDS011;47917;48.784;14.980;2022-07-22T04:15:29;7.30;;;5.05;;
61958;SDS011;47917;48.784;14.980;2022-07-22T04:17:55;6.90;;;5.10;;
61958;SDS011;47917;48.784;14.980;2022-07-22T04:20:20;8.90;;;6.10;;
61958;SDS011;47917;48.784;14.980;2022-07-22T04:22:45;8.55;;;6.97;;
61958;SDS011;47917;48.784;14.980;2022-07-22T04:25:11;9.98;;;6.53;;
61958;SDS011;47917;48.784;14.980;2022-07-22T04:27:37;12.68;;;7.10;;
61958;SDS011;47917;48.784;14.980;2022-07-22T04:30:03;10.98;;;7.80;;
61958;SDS011;47917;48.784;14.980;2022-07-22T04:32:29;12.85;;;8.32;;
61958;SDS011;47917;48.784;14.980;2022-07-22T04:34:54;9.88;;;6.50;;
61958;SDS011;47917;48.784;14.980;2022-07-22T04:37:20;7.80;;;6.10;;
61958;SDS011;47917;48.784;14.980;2022-07-22T04:39:45;7.15;;;6.15;;
61958;SDS011;47917;48.784;14.980;2022-07-22T04:42:10;9.30;;;6.25;;
61958;SDS011;47917;48.784;14.980;2022-07-22T04:44:36;12.73;;;7.85;;
61958;SDS011;47917;48.784;14.980;2022-07-22T04:47:01;12.35;;;8.60;;
61958;SDS011;47917;48.784;14.980;2022-07-22T04:49:26;9.50;;;6.70;;
61958;SDS011;47917;48.784;14.980;2022-07-22T04:51:52;10.90;;;7.93;;
61958;SDS011;47917;48.784;14.980;2022-07-22T04:54:17;10.68;;;8.15;;
61958;SDS011;47917;48.784;14.980;2022-07-22T04:56:42;14.90;;;9.27;;
61958;SDS011;47917;48.784;14.980;2022-07-22T04:59:08;11.80;;;8.57;;
61958;SDS011;47917;48.784;14.980;2022-07-22T05:01:33;10.88;;;7.38;;
61958;SDS011;47917;48.784;14.980;2022-07-22T05:03:59;11.13;;;8.55;;
61958;SDS011;47917;48.784;14.980;2022-07-22T05:06:24;12.75;;;8.75;;
61958;SDS011;47917;48.784;14.980;2022-07-22T05:08:49;10.88;;;9.05;;
61958;SDS011;47917;48.784;14.980;2022-07-22T05:11:15;12.50;;;8.95;;
61958;SDS011;47917;48.784;14.980;2022-07-22T05:13:40;11.85;;;8.68;;
61958;SDS011;47917;48.784;14.980;2022-07-22T05:16:06;14.15;;;9.35;;
61958;SDS011;47917;48.784;14.980;2022-07-22T05:18:32;13.70;;;8.45;;
61958;SDS011;47917;48.784;14.980;2022-07-22T05:20:57;10.50;;;8.23;;
61958;SDS011;47917;48.784;14.980;2022-07-22T05:23:23;12.38;;;8.23;;
61958;SDS011;47917;48.784;14.980;2022-07-22T05:25:48;11.77;;;7.93;;
61958;SDS011;47917;48.784;14.980;2022-07-22T05:28:14;14.40;;;7.45;;
61958;SDS011;47917;48.784;14.980;2022-07-22T05:30:44;9.88;;;7.47;;
61958;SDS011;47917;48.784;14.980;2022-07-22T05:33:10;10.05;;;7.57;;
61958;SDS011;47917;48.784;14.980;2022-07-22T05:35:38;8.63;;;7.22;;
61958;SDS011;47917;48.784;14.980;2022-07-22T05:38:04;12.48;;;8.05;;
61958;SDS011;47917;48.784;14.980;2022-07-22T05:40:31;12.90;;;7.88;;
61958;SDS011;47917;48.784;14.980;2022-07-22T05:42:57;11.20;;;7.22;;
61958;SDS011;47917;48.784;14.980;2022-07-22T05:45:22;14.85;;;7.72;;
61958;SDS011;47917;48.784;14.980;2022-07-22T05:47:48;13.80;;;7.97;;
61958;SDS011;47917;48.784;14.980;2022-07-22T05:50:13;9.30;;;7.72;;
61958;SDS011;47917;48.784;14.980;2022-07-22T05:52:38;8.38;;;6.18;;
61958;SDS011;47917;48.784;14.980;2022-07-22T05:55:04;15.15;;;8.38;;
61958;SDS011;47917;48.784;14.980;2022-07-22T05:57:30;10.30;;;6.35;;
61958;SDS011;47917;48.784;14.980;2022-07-22T05:59:57;13.63;;;6.95;;
61958;SDS011;47917;48.784;14.980;2022-07-22T06:02:23;10.82;;;7.35;;
61958;SDS011;47917;48.784;14.980;2022-07-22T06:04:51;12.18;;;7.65;;
61958;SDS011;47917;48.784;14.980;2022-07-22T06:07:21;12.05;;;6.32;;
61958;SDS011;47917;48.784;14.980;2022-07-22T06:09:46;11.15;;;6.40;;
61958;SDS011;47917;48.784;14.980;2022-07-22T06:12:18;11.82;;;6.90;;
61958;SDS011;47917;48.784;14.980;2022-07-22T06:14:43;11.10;;;6.97;;
61958;SDS011;47917;48.784;14.980;2022-07-22T06:17:14;15.45;;;7.25;;
61958;SDS011;47917;48.784;14.980;2022-07-22T06:19:40;8.73;;;6.72;;
61958;SDS011;47917;48.784;14.980;2022-07-22T06:22:05;12.68;;;7.43;;
61958;SDS011;47917;48.784;14.980;2022-07-22T06:24:33;12.20;;;7.35;;
61958;SDS011;47917;48.784;14.980;2022-07-22T06:26:59;9.15;;;6.70;;
61958;SDS011;47917;48.784;14.980;2022-07-22T06:29:24;8.70;;;6.30;;
61958;SDS011;47917;48.784;14.980;2022-07-22T06:31:52;8.63;;;6.93;;
61958;SDS011;47917;48.784;14.980;2022-07-22T06:34:20;9.27;;;6.60;;
61958;SDS011;47917;48.784;14.980;2022-07-22T06:36:48;17.88;;;7.93;;
61958;SDS011;47917;48.784;14.980;2022-07-22T06:39:17;9.63;;;7.25;;
61958;SDS011;47917;48.784;14.980;2022-07-22T06:41:42;9.43;;;5.95;;
61958;SDS011;47917;48.784;14.980;2022-07-22T06:44:07;11.38;;;6.65;;
61958;SDS011;47917;48.784;14.980;2022-07-22T06:46:33;10.98;;;6.25;;
61958;SDS011;47917;48.784;14.980;2022-07-22T06:48:58;8.95;;;6.25;;
61958;SDS011;47917;48.784;14.980;2022-07-22T06:51:24;11.90;;;7.57;;
61958;SDS011;47917;48.784;14.980;2022-07-22T06:54:01;9.45;;;5.82;;
61958;SDS011;47917;48.784;14.980;2022-07-22T06:56:27;7.68;;;5.15;;
61958;SDS011;47917;48.784;14.980;2022-07-22T06:58:53;6.80;;;5.30;;
61958;SDS011;47917;48.784;14.980;2022-07-22T07:01:21;7.10;;;5.45;;
61958;SDS011;47917;48.784;14.980;2022-07-22T07:03:50;7.63;;;5.53;;
61958;SDS011;47917;48.784;14.980;2022-07-22T07:06:15;6.13;;;4.90;;
61958;SDS011;47917;48.784;14.980;2022-07-22T07:08:42;14.50;;;7.53;;
61958;SDS011;47917;48.784;14.980;2022-07-22T07:11:10;9.13;;;6.25;;
61958;SDS011;47917;48.784;14.980;2022-07-22T07:13:36;7.07;;;6.05;;
61958;SDS011;47917;48.784;14.980;2022-07-22T07:16:01;9.55;;;6.65;;
61958;SDS011;47917;48.784;14.980;2022-07-22T07:18:27;8.00;;;6.43;;
61958;SDS011;47917;48.784;14.980;2022-07-22T07:20:57;9.15;;;6.78;;
61958;SDS011;47917;48.784;14.980;2022-07-22T07:23:23;7.30;;;6.25;;
61958;SDS011;47917;48.784;14.980;2022-07-22T07:25:51;6.60;;;5.35;;
61958;SDS011;47917;48.784;14.980;2022-07-22T07:28:16;9.13;;;6.35;;
61958;SDS011;47917;48.784;14.980;2022-07-22T07:30:44;9.68;;;6.20;;
61958;SDS011;47917;48.784;14.980;2022-07-22T07:33:10;8.48;;;6.78;;
61958;SDS011;47917;48.784;14.980;2022-07-22T07:35:36;7.68;;;5.63;;
61958;SDS011;47917;48.784;14.980;2022-07-22T07:38:02;11.85;;;7.38;;
61958;SDS011;47917;48.784;14.980;2022-07-22T07:40:30;9.27;;;6.43;;
61958;SDS011;47917;48.784;14.980;2022-07-22T07:42:59;6.07;;;4.32;;
61958;SDS011;47917;48.784;14.980;2022-07-22T07:45:24;13.05;;;6.10;;
61958;SDS011;47917;48.784;14.980;2022-07-22T07:47:49;7.60;;;5.13;;
61958;SDS011;47917;48.784;14.980;2022-07-22T07:50:15;21.25;;;9.48;;
61958;SDS011;47917;48.784;14.980;2022-07-22T07:52:41;7.70;;;4.28;;
61958;SDS011;47917;48.784;14.980;2022-07-22T07:55:07;8.50;;;7.15;;
61958;SDS011;47917;48.784;14.980;2022-07-22T07:57:33;8.05;;;5.82;;
61958;SDS011;47917;48.784;14.980;2022-07-22T08:00:02;8.57;;;5.90;;
61958;SDS011;47917;48.784;14.980;2022-07-22T08:02:30;8.35;;;6.85;;
61958;SDS011;47917;48.784;14.980;2022-07-22T08:04:56;12.45;;;7.55;;
61958;SDS011;47917;48.784;14.980;2022-07-22T08:07:22;6.95;;;5.75;;
61958;SDS011;47917;48.784;14.980;2022-07-22T08:09:47;7.40;;;4.93;;
61958;SDS011;47917;48.784;14.980;2022-07-22T08:12:12;8.45;;;6.00;;
61958;SDS011;47917;48.784;14.980;2022-07-22T08:14:38;21.00;;;9.50;;
61958;SDS011;47917;48.784;14.980;2022-07-22T08:17:03;11.98;;;7.13;;
61958;SDS011;47917;48.784;14.980;2022-07-22T08:19:28;7.30;;;6.00;;
61958;SDS011;47917;48.784;14.980;2022-07-22T08:22:01;10.32;;;5.97;;
61958;SDS011;47917;48.784;14.980;2022-07-22T08:24:27;8.88;;;6.13;;
61958;SDS011;47917;48.784;14.980;2022-07-22T08:26:52;9.13;;;7.03;;
61958;SDS011;47917;48.784;14.980;2022-07-22T08:29:21;7.82;;;5.72;;
61958;SDS011;47917;48.784;14.980;2022-07-22T08:31:46;11.57;;;5.93;;
61958;SDS011;47917;48.784;14.980;2022-07-22T08:34:12;8.13;;;5.25;;
61958;SDS011;47917;48.784;14.980;2022-07-22T08:36:38;8.55;;;6.55;;
61958;SDS011;47917;48.784;14.980;2022-07-22T08:39:06;14.35;;;6.43;;
61958;SDS011;47917;48.784;14.980;2022-07-22T08:41:40;10.18;;;6.32;;
61958;SDS011;47917;48.784;14.980;2022-07-22T08:44:08;10.07;;;5.78;;
61958;SDS011;47917;48.784;14.980;2022-07-22T08:46:37;9.47;;;6.43;;
61958;SDS011;47917;48.784;14.980;2022-07-22T08:49:03;8.27;;;6.18;;
61958;SDS011;47917;48.784;14.980;2022-07-22T08:51:28;7.95;;;5.18;;
61958;SDS011;47917;48.784;14.980;2022-07-22T08:53:56;8.60;;;6.00;;
61958;SDS011;47917;48.784;14.980;2022-07-22T08:56:22;8.88;;;5.90;;
61958;SDS011;47917;48.784;14.980;2022-07-22T08:58:47;8.90;;;5.78;;
61958;SDS011;47917;48.784;14.980;2022-07-22T09:01:16;8.80;;;5.80;;
61958;SDS011;47917;48.784;14.980;2022-07-22T09:03:46;7.50;;;5.93;;
61958;SDS011;47917;48.784;14.980;2022-07-22T09:06:17;6.15;;;4.60;;
61958;SDS011;47917;48.784;14.980;2022-07-22T09:08:59;9.23;;;6.57;;
61958;SDS011;47917;48.784;14.980;2022-07-22T09:11:28;9.80;;;6.25;;
61958;SDS011;47917;48.784;14.980;2022-07-22T09:13:54;10.07;;;6.20;;
61958;SDS011;47917;48.784;14.980;2022-07-22T09:19:07;12.50;;;5.90;;
61958;SDS011;47917;48.784;14.980;2022-07-22T09:21:34;7.28;;;5.65;;
61958;SDS011;47917;48.784;14.980;2022-07-22T09:24:02;8.63;;;5.85;;
61958;SDS011;47917;48.784;14.980;2022-07-22T09:26:31;9.68;;;5.85;;
61958;SDS011;47917;48.784;14.980;2022-07-22T09:28:57;9.05;;;6.10;;
61958;SDS011;47917;48.784;14.980;2022-07-22T09:31:23;8.38;;;5.32;;
61958;SDS011;47917;48.784;14.980;2022-07-22T09:33:49;5.85;;;4.72;;
61958;SDS011;47917;48.784;14.980;2022-07-22T09:36:16;7.45;;;4.40;;
61958;SDS011;47917;48.784;14.980;2022-07-22T09:38:43;6.72;;;5.40;;
61958;SDS011;47917;48.784;14.980;2022-07-22T09:41:08;6.05;;;4.63;;
61958;SDS011;47917;48.784;14.980;2022-07-22T09:43:36;6.55;;;4.70;;
61958;SDS011;47917;48.784;14.980;2022-07-22T09:46:02;6.88;;;4.63;;
61958;SDS011;47917;48.784;14.980;2022-07-22T09:48:29;4.90;;;3.58;;
61958;SDS011;47917;48.784;14.980;2022-07-22T09:50:55;7.25;;;5.13;;
61958;SDS011;47917;48.784;14.980;2022-07-22T09:53:22;5.20;;;4.53;;
61958;SDS011;47917;48.784;14.980;2022-07-22T09:55:48;5.88;;;4.57;;
61958;SDS011;47917;48.784;14.980;2022-07-22T09:58:13;7.13;;;4.77;;
61958;SDS011;47917;48.784;14.980;2022-07-22T10:00:39;6.27;;;4.90;;
61958;SDS011;47917;48.784;14.980;2022-07-22T10:03:06;5.88;;;4.60;;
61958;SDS011;47917;48.784;14.980;2022-07-22T10:05:37;4.55;;;3.30;;
61958;SDS011;47917;48.784;14.980;2022-07-22T10:08:04;5.40;;;4.05;;
61958;SDS011;47917;48.784;14.980;2022-07-22T10:10:35;4.43;;;3.25;;
61958;SDS011;47917;48.784;14.980;2022-07-22T10:13:04;5.93;;;3.83;;
61958;SDS011;47917;48.784;14.980;2022-07-22T10:15:33;5.25;;;3.95;;
61958;SDS011;47917;48.784;14.980;2022-07-22T10:18:09;5.57;;;4.53;;
61958;SDS011;47917;48.784;14.980;2022-07-22T10:20:34;6.45;;;4.20;;
61958;SDS011;47917;48.784;14.980;2022-07-22T10:23:01;6.80;;;3.70;;
61958;SDS011;47917;48.784;14.980;2022-07-22T10:25:30;7.93;;;4.38;;
61958;SDS011;47917;48.784;14.980;2022-07-22T10:28:05;5.38;;;3.80;;
61958;SDS011;47917;48.784;14.980;2022-07-22T10:30:33;5.05;;;3.70;;
61958;SDS011;47917;48.784;14.980;2022-07-22T10:35:25;4.40;;;3.17;;
61958;SDS011;47917;48.784;14.980;2022-07-22T10:37:51;5.37;;;3.60;;
61958;SDS011;47917;48.784;14.980;2022-07-22T10:40:20;5.80;;;4.60;;
61958;SDS011;47917;48.784;14.980;2022-07-22T10:45:32;6.60;;;4.53;;
61958;SDS011;47917;48.784;14.980;2022-07-22T10:47:59;8.30;;;4.32;;
61958;SDS011;47917;48.784;14.980;2022-07-22T10:50:40;8.55;;;4.63;;
61958;SDS011;47917;48.784;14.980;2022-07-22T10:55:32;5.87;;;4.60;;
61958;SDS011;47917;48.784;14.980;2022-07-22T10:57:57;4.83;;;3.97;;
61958;SDS011;47917;48.784;14.980;2022-07-22T11:00:22;10.00;;;4.40;;
61958;SDS011;47917;48.784;14.980;2022-07-22T11:02:48;5.93;;;4.67;;
61958;SDS011;47917;48.784;14.980;2022-07-22T11:05:26;5.50;;;4.30;;
61958;SDS011;47917;48.784;14.980;2022-07-22T11:07:52;6.30;;;4.72;;
61958;SDS011;47917;48.784;14.980;2022-07-22T11:10:18;7.37;;;5.10;;
61958;SDS011;47917;48.784;14.980;2022-07-22T11:12:45;6.65;;;4.95;;
61958;SDS011;47917;48.784;14.980;2022-07-22T11:15:11;7.20;;;4.50;;
61958;SDS011;47917;48.784;14.980;2022-07-22T11:17:39;9.93;;;5.00;;
61958;SDS011;47917;48.784;14.980;2022-07-22T11:20:09;5.25;;;4.43;;
61958;SDS011;47917;48.784;14.980;2022-07-22T11:22:39;5.35;;;4.70;;
61958;SDS011;47917;48.784;14.980;2022-07-22T11:25:09;8.20;;;5.30;;
61958;SDS011;47917;48.784;14.980;2022-07-22T11:27:47;8.93;;;4.68;;
61958;SDS011;47917;48.784;14.980;2022-07-22T11:30:16;6.22;;;4.65;;
61958;SDS011;47917;48.784;14.980;2022-07-22T11:32:42;6.88;;;4.90;;
61958;SDS011;47917;48.784;14.980;2022-07-22T11:35:13;6.50;;;5.07;;
61958;SDS011;47917;48.784;14.980;2022-07-22T11:37:39;7.65;;;4.75;;
61958;SDS011;47917;48.784;14.980;2022-07-22T11:40:08;7.22;;;5.38;;
61958;SDS011;47917;48.784;14.980;2022-07-22T11:42:45;7.20;;;4.80;;
61958;SDS011;47917;48.784;14.980;2022-07-22T11:45:22;6.18;;;4.53;;
61958;SDS011;47917;48.784;14.980;2022-07-22T11:47:48;6.63;;;4.97;;
61958;SDS011;47917;48.784;14.980;2022-07-22T11:50:14;8.32;;;5.05;;
61958;SDS011;47917;48.784;14.980;2022-07-22T11:52:51;5.00;;;4.40;;
61958;SDS011;47917;48.784;14.980;2022-07-22T11:57:47;6.77;;;4.80;;
61958;SDS011;47917;48.784;14.980;2022-07-22T12:00:13;7.13;;;5.03;;
61958;SDS011;47917;48.784;14.980;2022-07-22T12:02:46;5.85;;;4.55;;
61958;SDS011;47917;48.784;14.980;2022-07-22T12:05:11;7.53;;;5.13;;
61958;SDS011;47917;48.784;14.980;2022-07-22T12:07:37;7.80;;;5.03;;
61958;SDS011;47917;48.784;14.980;2022-07-22T12:10:06;6.53;;;5.07;;
61958;SDS011;47917;48.784;14.980;2022-07-22T12:12:39;6.72;;;4.65;;
61958;SDS011;47917;48.784;14.980;2022-07-22T12:15:07;6.68;;;4.72;;
61958;SDS011;47917;48.784;14.980;2022-07-22T12:17:33;10.20;;;4.75;;
61958;SDS011;47917;48.784;14.980;2022-07-22T12:20:08;5.40;;;4.73;;
61958;SDS011;47917;48.784;14.980;2022-07-22T12:22:34;6.63;;;5.07;;
61958;SDS011;47917;48.784;14.980;2022-07-22T12:25:09;6.05;;;4.82;;
61958;SDS011;47917;48.784;14.980;2022-07-22T12:27:34;26.77;;;11.47;;
61958;SDS011;47917;48.784;14.980;2022-07-22T12:30:11;8.45;;;4.53;;
61958;SDS011;47917;48.784;14.980;2022-07-22T12:32:36;6.38;;;4.32;;
61958;SDS011;47917;48.784;14.980;2022-07-22T12:35:14;5.20;;;4.30;;
61958;SDS011;47917;48.784;14.980;2022-07-22T12:37:43;7.13;;;4.35;;
61958;SDS011;47917;48.784;14.980;2022-07-22T12:42:59;8.00;;;4.90;;
61958;SDS011;47917;48.784;14.980;2022-07-22T12:45:31;6.40;;;4.60;;
61958;SDS011;47917;48.784;14.980;2022-07-22T12:48:09;7.03;;;4.90;;
61958;SDS011;47917;48.784;14.980;2022-07-22T12:55:40;6.45;;;5.20;;
61958;SDS011;47917;48.784;14.980;2022-07-22T12:58:23;5.03;;;4.25;;
61958;SDS011;47917;48.784;14.980;2022-07-22T13:00:53;5.75;;;4.60;;
61958;SDS011;47917;48.784;14.980;2022-07-22T13:03:48;7.53;;;4.80;;
61958;SDS011;47917;48.784;14.980;2022-07-22T13:06:13;9.70;;;4.80;;
61958;SDS011;47917;48.784;14.980;2022-07-22T13:08:38;7.73;;;4.33;;
61958;SDS011;47917;48.784;14.980;2022-07-22T13:11:03;6.00;;;5.17;;
61958;SDS011;47917;48.784;14.980;2022-07-22T13:13:29;6.60;;;5.43;;
61958;SDS011;47917;48.784;14.980;2022-07-22T13:15:54;5.63;;;4.80;;
61958;SDS011;47917;48.784;14.980;2022-07-22T13:18:20;7.20;;;4.30;;
61958;SDS011;47917;48.784;14.980;2022-07-22T13:20:45;5.60;;;4.17;;
61958;SDS011;47917;48.784;14.980;2022-07-22T13:23:12;4.50;;;3.70;;
61958;SDS011;47917;48.784;14.980;2022-07-22T13:25:37;5.47;;;4.27;;
61958;SDS011;47917;48.784;14.980;2022-07-22T13:28:02;7.73;;;4.97;;
61958;SDS011;47917;48.784;14.980;2022-07-22T13:30:28;5.87;;;4.57;;
61958;SDS011;47917;48.784;14.980;2022-07-22T13:32:53;5.67;;;4.60;;
61958;SDS011;47917;48.784;14.980;2022-07-22T13:35:18;6.90;;;4.67;;
61958;SDS011;47917;48.784;14.980;2022-07-22T13:37:44;6.67;;;4.13;;
61958;SDS011;47917;48.784;14.980;2022-07-22T13:40:09;9.30;;;5.67;;
61958;SDS011;47917;48.784;14.980;2022-07-22T13:42:35;6.40;;;4.77;;
61958;SDS011;47917;48.784;14.980;2022-07-22T13:45:00;5.13;;;4.27;;
61958;SDS011;47917;48.784;14.980;2022-07-22T13:47:25;6.17;;;4.43;;
61958;SDS011;47917;48.784;14.980;2022-07-22T13:49:52;5.65;;;4.90;;
61958;SDS011;47917;48.784;14.980;2022-07-22T13:52:17;5.23;;;4.40;;
61958;SDS011;47917;48.784;14.980;2022-07-22T13:54:43;7.03;;;4.90;;
61958;SDS011;47917;48.784;14.980;2022-07-22T13:57:09;5.87;;;4.60;;
61958;SDS011;47917;48.784;14.980;2022-07-22T13:59:35;6.63;;;4.90;;
61958;SDS011;47917;48.784;14.980;2022-07-22T14:02:00;6.50;;;4.60;;
61958;SDS011;47917;48.784;14.980;2022-07-22T14:04:26;26.13;;;11.07;;
61958;SDS011;47917;48.784;14.980;2022-07-22T14:06:51;8.47;;;5.53;;
61958;SDS011;47917;48.784;14.980;2022-07-22T14:09:17;5.97;;;4.53;;
61958;SDS011;47917;48.784;14.980;2022-07-22T14:11:42;6.93;;;4.60;;
61958;SDS011;47917;48.784;14.980;2022-07-22T14:14:08;8.83;;;4.40;;
61958;SDS011;47917;48.784;14.980;2022-07-22T14:16:34;6.97;;;4.40;;
61958;SDS011;47917;48.784;14.980;2022-07-22T14:19:00;5.20;;;4.40;;
61958;SDS011;47917;48.784;14.980;2022-07-22T14:21:25;6.50;;;3.67;;
61958;SDS011;47917;48.784;14.980;2022-07-22T14:23:55;7.70;;;5.03;;
61958;SDS011;47917;48.784;14.980;2022-07-22T14:26:21;6.20;;;4.60;;
61958;SDS011;47917;48.784;14.980;2022-07-22T14:28:46;10.83;;;6.20;;
61958;SDS011;47917;48.784;14.980;2022-07-22T14:31:11;6.93;;;4.80;;
61958;SDS011;47917;48.784;14.980;2022-07-22T14:33:37;7.10;;;3.70;;
61958;SDS011;47917;48.784;14.980;2022-07-22T14:36:02;5.87;;;4.87;;
61958;SDS011;47917;48.784;14.980;2022-07-22T14:38:27;6.77;;;4.40;;
61958;SDS011;47917;48.784;14.980;2022-07-22T14:40:53;6.30;;;5.03;;
61958;SDS011;47917;48.784;14.980;2022-07-22T14:43:18;6.67;;;5.30;;
61958;SDS011;47917;48.784;14.980;2022-07-22T14:45:43;9.50;;;4.63;;
61958;SDS011;47917;48.784;14.980;2022-07-22T14:48:09;7.20;;;4.67;;
61958;SDS011;47917;48.784;14.980;2022-07-22T14:50:34;6.30;;;5.03;;